sensor_id;sensor_type;location;lat;lon;timestamp;P1;durP1;ratioP1;P2;durP2;ratioP2
58992;SDS011;44782;0.000;0.000;2023-02-26T00:00:21;2.30;;;1.87;;
58992;SDS011;44782;0.000;0.000;2023-02-26T00:02:36;2.60;;;1.70;;
58992;SDS011;44782;0.000;0.000;2023-02-26T00:04:52;2.23;;;1.90;;
58992;SDS011;44782;0.000;0.000;2023-02-26T00:07:08;2.03;;;1.70;;
58992;SDS011;44782;0.000;0.000;2023-02-26T00:09:23;2.63;;;1.90;;
58992;SDS011;44782;0.000;0.000;2023-02-26T00:11:39;2.60;;;1.70;;
58992;SDS011;44782;0.000;0.000;2023-02-26T00:13:55;2.67;;;2.07;;
58992;SDS011;44782;0.000;0.000;2023-02-26T00:18:49;1.80;;;1.60;;
58992;SDS011;44782;0.000;0.000;2023-02-26T00:21:05;2.03;;;1.60;;
58992;SDS011;44782;0.000;0.000;2023-02-26T00:23:22;2.30;;;1.70;;
58992;SDS011;44782;0.000;0.000;2023-02-26T00:25:38;2.53;;;1.77;;
58992;SDS011;44782;0.000;0.000;2023-02-26T00:27:55;1.77;;;1.50;;
58992;SDS011;44782;0.000;0.000;2023-02-26T00:30:11;2.60;;;1.70;;
58992;SDS011;44782;0.000;0.000;2023-02-26T00:32:27;2.13;;;1.70;;
58992;SDS011;44782;0.000;0.000;2023-02-26T00:34:44;2.10;;;1.70;;
58992;SDS011;44782;0.000;0.000;2023-02-26T00:39:30;2.50;;;1.77;;
58992;SDS011;44782;0.000;0.000;2023-02-26T00:42:13;1.80;;;1.60;;
58992;SDS011;44782;0.000;0.000;2023-02-26T00:44:29;2.03;;;1.63;;
58992;SDS011;44782;0.000;0.000;2023-02-26T00:55:15;2.37;;;1.87;;
58992;SDS011;44782;0.000;0.000;2023-02-26T00:57:30;2.20;;;1.80;;
58992;SDS011;44782;0.000;0.000;2023-02-26T00:59:46;2.40;;;1.97;;
58992;SDS011;44782;0.000;0.000;2023-02-26T01:02:02;2.43;;;1.73;;
58992;SDS011;44782;0.000;0.000;2023-02-26T01:04:19;2.20;;;1.73;;
58992;SDS011;44782;0.000;0.000;2023-02-26T01:06:37;3.33;;;1.70;;
58992;SDS011;44782;0.000;0.000;2023-02-26T01:11:30;2.13;;;1.87;;
58992;SDS011;44782;0.000;0.000;2023-02-26T01:13:48;2.13;;;1.77;;
58992;SDS011;44782;0.000;0.000;2023-02-26T01:16:04;2.83;;;1.90;;
58992;SDS011;44782;0.000;0.000;2023-02-26T01:18:26;1.93;;;1.73;;
58992;SDS011;44782;0.000;0.000;2023-02-26T01:20:53;2.20;;;1.70;;
58992;SDS011;44782;0.000;0.000;2023-02-26T01:23:17;2.37;;;1.90;;
58992;SDS011;44782;0.000;0.000;2023-02-26T01:25:43;2.47;;;1.83;;
58992;SDS011;44782;0.000;0.000;2023-02-26T01:28:05;3.27;;;1.90;;
58992;SDS011;44782;0.000;0.000;2023-02-26T01:30:21;2.53;;;1.90;;
58992;SDS011;44782;0.000;0.000;2023-02-26T01:38:01;2.23;;;1.90;;
58992;SDS011;44782;0.000;0.000;2023-02-26T01:43:10;2.67;;;1.77;;
58992;SDS011;44782;0.000;0.000;2023-02-26T01:45:32;2.30;;;1.83;;
58992;SDS011;44782;0.000;0.000;2023-02-26T01:47:55;1.83;;;1.70;;
58992;SDS011;44782;0.000;0.000;2023-02-26T01:50:18;1.83;;;1.70;;
58992;SDS011;44782;0.000;0.000;2023-02-26T01:55:03;2.37;;;1.90;;
58992;SDS011;44782;0.000;0.000;2023-02-26T01:57:19;2.23;;;1.87;;
58992;SDS011;44782;0.000;0.000;2023-02-26T01:59:37;2.10;;;1.90;;
58992;SDS011;44782;0.000;0.000;2023-02-26T02:01:59;2.77;;;2.00;;
58992;SDS011;44782;0.000;0.000;2023-02-26T02:04:19;2.60;;;1.87;;
58992;SDS011;44782;0.000;0.000;2023-02-26T02:06:36;1.80;;;1.70;;
58992;SDS011;44782;0.000;0.000;2023-02-26T02:08:53;1.70;;;1.60;;
58992;SDS011;44782;0.000;0.000;2023-02-26T02:11:10;2.23;;;1.77;;
58992;SDS011;44782;0.000;0.000;2023-02-26T02:18:37;2.33;;;1.80;;
58992;SDS011;44782;0.000;0.000;2023-02-26T02:26:43;2.30;;;1.70;;
58992;SDS011;44782;0.000;0.000;2023-02-26T02:37:17;2.60;;;1.90;;
58992;SDS011;44782;0.000;0.000;2023-02-26T02:39:37;2.40;;;1.93;;
58992;SDS011;44782;0.000;0.000;2023-02-26T02:42:06;2.73;;;1.70;;
58992;SDS011;44782;0.000;0.000;2023-02-26T02:44:34;2.23;;;1.73;;
58992;SDS011;44782;0.000;0.000;2023-02-26T02:46:55;2.10;;;1.83;;
58992;SDS011;44782;0.000;0.000;2023-02-26T02:49:15;2.17;;;1.80;;
58992;SDS011;44782;0.000;0.000;2023-02-26T02:51:44;2.13;;;1.87;;
58992;SDS011;44782;0.000;0.000;2023-02-26T02:54:31;2.00;;;1.77;;
58992;SDS011;44782;0.000;0.000;2023-02-26T02:56:57;3.27;;;2.10;;
58992;SDS011;44782;0.000;0.000;2023-02-26T02:59:20;2.90;;;1.97;;
58992;SDS011;44782;0.000;0.000;2023-02-26T03:02:09;2.23;;;1.80;;
58992;SDS011;44782;0.000;0.000;2023-02-26T03:04:28;1.70;;;1.60;;
58992;SDS011;44782;0.000;0.000;2023-02-26T03:06:44;2.30;;;1.80;;
58992;SDS011;44782;0.000;0.000;2023-02-26T03:09:01;2.60;;;1.90;;
58992;SDS011;44782;0.000;0.000;2023-02-26T03:11:18;3.17;;;2.00;;
58992;SDS011;44782;0.000;0.000;2023-02-26T03:13:34;1.87;;;1.70;;
58992;SDS011;44782;0.000;0.000;2023-02-26T03:15:59;2.30;;;2.00;;
58992;SDS011;44782;0.000;0.000;2023-02-26T03:18:26;2.77;;;1.70;;
58992;SDS011;44782;0.000;0.000;2023-02-26T03:26:13;2.33;;;1.60;;
58992;SDS011;44782;0.000;0.000;2023-02-26T03:38:13;2.17;;;1.80;;
58992;SDS011;44782;0.000;0.000;2023-02-26T03:40:37;2.10;;;1.67;;
58992;SDS011;44782;0.000;0.000;2023-02-26T03:43:05;2.03;;;1.70;;
58992;SDS011;44782;0.000;0.000;2023-02-26T03:45:26;2.20;;;1.77;;
58992;SDS011;44782;0.000;0.000;2023-02-26T03:47:46;2.10;;;1.63;;
58992;SDS011;44782;0.000;0.000;2023-02-26T03:50:10;1.63;;;1.50;;
58992;SDS011;44782;0.000;0.000;2023-02-26T03:52:31;2.03;;;1.77;;
58992;SDS011;44782;0.000;0.000;2023-02-26T03:55:00;2.97;;;1.93;;
58992;SDS011;44782;0.000;0.000;2023-02-26T03:57:29;2.00;;;1.80;;
58992;SDS011;44782;0.000;0.000;2023-02-26T03:59:45;2.33;;;2.00;;
58992;SDS011;44782;0.000;0.000;2023-02-26T04:02:06;2.10;;;1.90;;
58992;SDS011;44782;0.000;0.000;2023-02-26T04:07:00;2.13;;;1.80;;
58992;SDS011;44782;0.000;0.000;2023-02-26T04:09:16;2.33;;;1.90;;
58992;SDS011;44782;0.000;0.000;2023-02-26T04:11:32;2.10;;;1.80;;
58992;SDS011;44782;0.000;0.000;2023-02-26T04:13:48;2.23;;;1.90;;
58992;SDS011;44782;0.000;0.000;2023-02-26T04:16:04;2.00;;;1.70;;
58992;SDS011;44782;0.000;0.000;2023-02-26T04:18:20;1.90;;;1.70;;
58992;SDS011;44782;0.000;0.000;2023-02-26T04:20:36;2.10;;;1.83;;
58992;SDS011;44782;0.000;0.000;2023-02-26T04:22:51;1.93;;;1.77;;
58992;SDS011;44782;0.000;0.000;2023-02-26T04:25:07;1.73;;;1.63;;
58992;SDS011;44782;0.000;0.000;2023-02-26T04:27:23;2.73;;;1.80;;
58992;SDS011;44782;0.000;0.000;2023-02-26T04:29:38;2.20;;;1.90;;
58992;SDS011;44782;0.000;0.000;2023-02-26T04:31:54;2.50;;;1.87;;
58992;SDS011;44782;0.000;0.000;2023-02-26T04:34:10;1.97;;;1.70;;
58992;SDS011;44782;0.000;0.000;2023-02-26T04:36:26;2.03;;;1.90;;
58992;SDS011;44782;0.000;0.000;2023-02-26T04:38:41;2.27;;;1.80;;
58992;SDS011;44782;0.000;0.000;2023-02-26T04:40:57;2.67;;;1.80;;
58992;SDS011;44782;0.000;0.000;2023-02-26T04:43:13;2.10;;;1.90;;
58992;SDS011;44782;0.000;0.000;2023-02-26T04:45:29;2.27;;;1.87;;
58992;SDS011;44782;0.000;0.000;2023-02-26T04:47:44;2.27;;;1.80;;
58992;SDS011;44782;0.000;0.000;2023-02-26T04:50:00;2.07;;;1.80;;
58992;SDS011;44782;0.000;0.000;2023-02-26T04:52:16;2.50;;;1.73;;
58992;SDS011;44782;0.000;0.000;2023-02-26T04:54:31;2.83;;;2.03;;
58992;SDS011;44782;0.000;0.000;2023-02-26T04:56:47;2.03;;;1.83;;
58992;SDS011;44782;0.000;0.000;2023-02-26T04:59:03;2.10;;;1.87;;
58992;SDS011;44782;0.000;0.000;2023-02-26T05:01:18;1.73;;;1.63;;
58992;SDS011;44782;0.000;0.000;2023-02-26T05:03:34;2.13;;;1.93;;
58992;SDS011;44782;0.000;0.000;2023-02-26T05:05:49;2.43;;;2.03;;
58992;SDS011;44782;0.000;0.000;2023-02-26T05:08:05;1.90;;;1.80;;
58992;SDS011;44782;0.000;0.000;2023-02-26T05:10:21;2.00;;;1.80;;
58992;SDS011;44782;0.000;0.000;2023-02-26T05:12:38;2.37;;;1.90;;
58992;SDS011;44782;0.000;0.000;2023-02-26T05:14:53;1.90;;;1.77;;
58992;SDS011;44782;0.000;0.000;2023-02-26T05:17:09;2.07;;;1.73;;
58992;SDS011;44782;0.000;0.000;2023-02-26T05:19:25;2.20;;;2.00;;
58992;SDS011;44782;0.000;0.000;2023-02-26T05:21:40;2.30;;;2.00;;
58992;SDS011;44782;0.000;0.000;2023-02-26T05:23:56;2.10;;;1.90;;
58992;SDS011;44782;0.000;0.000;2023-02-26T05:26:12;2.30;;;1.90;;
58992;SDS011;44782;0.000;0.000;2023-02-26T05:28:27;2.20;;;2.00;;
58992;SDS011;44782;0.000;0.000;2023-02-26T05:30:43;2.77;;;1.90;;
58992;SDS011;44782;0.000;0.000;2023-02-26T05:32:59;2.37;;;2.00;;
58992;SDS011;44782;0.000;0.000;2023-02-26T05:35:14;2.83;;;2.10;;
58992;SDS011;44782;0.000;0.000;2023-02-26T05:37:30;2.43;;;1.90;;
58992;SDS011;44782;0.000;0.000;2023-02-26T05:39:46;2.60;;;2.07;;
58992;SDS011;44782;0.000;0.000;2023-02-26T05:42:01;2.87;;;2.20;;
58992;SDS011;44782;0.000;0.000;2023-02-26T05:44:17;1.97;;;1.80;;
58992;SDS011;44782;0.000;0.000;2023-02-26T05:46:33;2.20;;;2.00;;
58992;SDS011;44782;0.000;0.000;2023-02-26T05:48:48;2.37;;;1.87;;
58992;SDS011;44782;0.000;0.000;2023-02-26T05:51:04;2.00;;;1.80;;
58992;SDS011;44782;0.000;0.000;2023-02-26T05:53:20;2.40;;;1.90;;
58992;SDS011;44782;0.000;0.000;2023-02-26T05:55:36;2.20;;;1.90;;
58992;SDS011;44782;0.000;0.000;2023-02-26T05:57:51;2.13;;;1.90;;
58992;SDS011;44782;0.000;0.000;2023-02-26T06:00:07;2.20;;;2.00;;
58992;SDS011;44782;0.000;0.000;2023-02-26T06:02:23;2.33;;;2.10;;
58992;SDS011;44782;0.000;0.000;2023-02-26T06:04:39;3.47;;;2.27;;
58992;SDS011;44782;0.000;0.000;2023-02-26T06:06:55;2.27;;;1.90;;
58992;SDS011;44782;0.000;0.000;2023-02-26T06:09:10;2.40;;;2.00;;
58992;SDS011;44782;0.000;0.000;2023-02-26T06:11:27;2.27;;;1.90;;
58992;SDS011;44782;0.000;0.000;2023-02-26T06:13:43;2.27;;;2.00;;
58992;SDS011;44782;0.000;0.000;2023-02-26T06:15:59;3.07;;;2.20;;
58992;SDS011;44782;0.000;0.000;2023-02-26T06:18:15;2.10;;;1.90;;
58992;SDS011;44782;0.000;0.000;2023-02-26T06:20:30;2.90;;;2.20;;
58992;SDS011;44782;0.000;0.000;2023-02-26T06:22:46;2.67;;;2.13;;
58992;SDS011;44782;0.000;0.000;2023-02-26T06:25:02;2.63;;;2.00;;
58992;SDS011;44782;0.000;0.000;2023-02-26T06:27:17;2.70;;;2.00;;
58992;SDS011;44782;0.000;0.000;2023-02-26T06:29:33;2.63;;;2.03;;
58992;SDS011;44782;0.000;0.000;2023-02-26T06:31:51;2.10;;;1.73;;
58992;SDS011;44782;0.000;0.000;2023-02-26T06:34:06;2.20;;;2.00;;
58992;SDS011;44782;0.000;0.000;2023-02-26T06:36:22;2.43;;;2.23;;
58992;SDS011;44782;0.000;0.000;2023-02-26T06:38:38;2.37;;;1.90;;
58992;SDS011;44782;0.000;0.000;2023-02-26T06:40:54;2.20;;;2.00;;
58992;SDS011;44782;0.000;0.000;2023-02-26T06:43:10;2.37;;;1.93;;
58992;SDS011;44782;0.000;0.000;2023-02-26T06:45:25;2.53;;;2.13;;
58992;SDS011;44782;0.000;0.000;2023-02-26T06:47:41;2.20;;;2.00;;
58992;SDS011;44782;0.000;0.000;2023-02-26T06:49:57;2.60;;;2.13;;
58992;SDS011;44782;0.000;0.000;2023-02-26T06:52:12;2.63;;;1.90;;
58992;SDS011;44782;0.000;0.000;2023-02-26T06:54:28;3.07;;;2.10;;
58992;SDS011;44782;0.000;0.000;2023-02-26T06:56:44;2.53;;;2.20;;
58992;SDS011;44782;0.000;0.000;2023-02-26T06:58:59;2.27;;;2.00;;
58992;SDS011;44782;0.000;0.000;2023-02-26T07:01:15;2.43;;;1.93;;
58992;SDS011;44782;0.000;0.000;2023-02-26T07:03:31;2.37;;;2.00;;
58992;SDS011;44782;0.000;0.000;2023-02-26T07:05:47;2.10;;;1.90;;
58992;SDS011;44782;0.000;0.000;2023-02-26T07:08:03;2.33;;;2.10;;
58992;SDS011;44782;0.000;0.000;2023-02-26T07:10:19;3.10;;;2.27;;
58992;SDS011;44782;0.000;0.000;2023-02-26T07:12:35;2.53;;;2.07;;
58992;SDS011;44782;0.000;0.000;2023-02-26T07:14:52;2.43;;;1.80;;
58992;SDS011;44782;0.000;0.000;2023-02-26T07:17:08;2.80;;;1.90;;
58992;SDS011;44782;0.000;0.000;2023-02-26T07:19:24;2.60;;;2.07;;
58992;SDS011;44782;0.000;0.000;2023-02-26T07:21:39;2.20;;;1.83;;
58992;SDS011;44782;0.000;0.000;2023-02-26T07:23:55;2.30;;;2.10;;
58992;SDS011;44782;0.000;0.000;2023-02-26T07:26:10;2.80;;;2.10;;
58992;SDS011;44782;0.000;0.000;2023-02-26T07:28:26;3.00;;;2.20;;
58992;SDS011;44782;0.000;0.000;2023-02-26T07:30:42;2.33;;;1.90;;
58992;SDS011;44782;0.000;0.000;2023-02-26T07:32:58;2.00;;;1.80;;
58992;SDS011;44782;0.000;0.000;2023-02-26T07:35:14;2.10;;;1.90;;
58992;SDS011;44782;0.000;0.000;2023-02-26T07:37:29;2.20;;;1.70;;
58992;SDS011;44782;0.000;0.000;2023-02-26T07:39:45;2.23;;;2.00;;
58992;SDS011;44782;0.000;0.000;2023-02-26T07:42:01;2.90;;;2.10;;
58992;SDS011;44782;0.000;0.000;2023-02-26T07:44:16;1.87;;;1.73;;
58992;SDS011;44782;0.000;0.000;2023-02-26T07:46:32;2.00;;;1.70;;
58992;SDS011;44782;0.000;0.000;2023-02-26T07:48:48;2.57;;;2.07;;
58992;SDS011;44782;0.000;0.000;2023-02-26T07:51:04;2.33;;;1.90;;
58992;SDS011;44782;0.000;0.000;2023-02-26T07:53:21;2.50;;;1.87;;
58992;SDS011;44782;0.000;0.000;2023-02-26T07:55:37;2.40;;;1.83;;
58992;SDS011;44782;0.000;0.000;2023-02-26T07:57:53;1.77;;;1.67;;
58992;SDS011;44782;0.000;0.000;2023-02-26T08:00:08;2.17;;;1.80;;
58992;SDS011;44782;0.000;0.000;2023-02-26T08:02:26;2.73;;;1.97;;
58992;SDS011;44782;0.000;0.000;2023-02-26T08:04:42;2.50;;;2.10;;
58992;SDS011;44782;0.000;0.000;2023-02-26T08:06:58;2.57;;;1.90;;
58992;SDS011;44782;0.000;0.000;2023-02-26T08:09:15;2.20;;;1.80;;
58992;SDS011;44782;0.000;0.000;2023-02-26T08:11:31;1.83;;;1.73;;
58992;SDS011;44782;0.000;0.000;2023-02-26T08:13:49;2.50;;;1.80;;
58992;SDS011;44782;0.000;0.000;2023-02-26T08:16:05;1.93;;;1.77;;
58992;SDS011;44782;0.000;0.000;2023-02-26T08:18:20;1.90;;;1.70;;
58992;SDS011;44782;0.000;0.000;2023-02-26T08:20:36;2.10;;;1.77;;
58992;SDS011;44782;0.000;0.000;2023-02-26T08:22:52;2.87;;;2.00;;
58992;SDS011;44782;0.000;0.000;2023-02-26T08:25:08;3.40;;;1.90;;
58992;SDS011;44782;0.000;0.000;2023-02-26T08:27:24;1.63;;;1.53;;
58992;SDS011;44782;0.000;0.000;2023-02-26T08:29:40;2.27;;;1.90;;
58992;SDS011;44782;0.000;0.000;2023-02-26T08:31:55;2.10;;;1.90;;
58992;SDS011;44782;0.000;0.000;2023-02-26T08:34:11;2.37;;;1.80;;
58992;SDS011;44782;0.000;0.000;2023-02-26T08:36:27;2.30;;;1.90;;
58992;SDS011;44782;0.000;0.000;2023-02-26T08:38:43;1.97;;;1.77;;
58992;SDS011;44782;0.000;0.000;2023-02-26T08:40:58;2.47;;;1.90;;
58992;SDS011;44782;0.000;0.000;2023-02-26T08:43:14;2.13;;;1.73;;
58992;SDS011;44782;0.000;0.000;2023-02-26T08:45:30;1.90;;;1.70;;
58992;SDS011;44782;0.000;0.000;2023-02-26T08:47:46;2.20;;;2.00;;
58992;SDS011;44782;0.000;0.000;2023-02-26T08:50:01;2.77;;;2.00;;
58992;SDS011;44782;0.000;0.000;2023-02-26T08:52:19;2.13;;;1.87;;
58992;SDS011;44782;0.000;0.000;2023-02-26T08:54:35;2.50;;;2.00;;
58992;SDS011;44782;0.000;0.000;2023-02-26T08:56:50;2.07;;;1.87;;
58992;SDS011;44782;0.000;0.000;2023-02-26T08:59:09;2.73;;;1.93;;
58992;SDS011;44782;0.000;0.000;2023-02-26T09:01:26;3.27;;;1.80;;
58992;SDS011;44782;0.000;0.000;2023-02-26T09:03:42;2.40;;;1.90;;
58992;SDS011;44782;0.000;0.000;2023-02-26T09:05:58;3.00;;;1.80;;
58992;SDS011;44782;0.000;0.000;2023-02-26T09:08:13;2.63;;;1.80;;
58992;SDS011;44782;0.000;0.000;2023-02-26T09:10:29;2.00;;;1.60;;
58992;SDS011;44782;0.000;0.000;2023-02-26T09:12:45;2.33;;;1.80;;
58992;SDS011;44782;0.000;0.000;2023-02-26T09:15:02;2.37;;;1.80;;
58992;SDS011;44782;0.000;0.000;2023-02-26T09:17:19;2.73;;;1.90;;
58992;SDS011;44782;0.000;0.000;2023-02-26T09:19:34;3.27;;;1.77;;
58992;SDS011;44782;0.000;0.000;2023-02-26T09:21:50;2.50;;;2.00;;
58992;SDS011;44782;0.000;0.000;2023-02-26T09:24:06;2.73;;;1.80;;
58992;SDS011;44782;0.000;0.000;2023-02-26T09:26:22;2.27;;;1.60;;
58992;SDS011;44782;0.000;0.000;2023-02-26T09:28:37;1.70;;;1.60;;
58992;SDS011;44782;0.000;0.000;2023-02-26T09:30:53;1.80;;;1.70;;
58992;SDS011;44782;0.000;0.000;2023-02-26T09:33:09;2.40;;;1.60;;
58992;SDS011;44782;0.000;0.000;2023-02-26T09:35:25;3.03;;;1.97;;
58992;SDS011;44782;0.000;0.000;2023-02-26T09:37:41;2.03;;;1.53;;
58992;SDS011;44782;0.000;0.000;2023-02-26T09:39:56;2.10;;;1.60;;
58992;SDS011;44782;0.000;0.000;2023-02-26T09:44:47;2.77;;;1.70;;
58992;SDS011;44782;0.000;0.000;2023-02-26T09:49:35;2.20;;;1.80;;
58992;SDS011;44782;0.000;0.000;2023-02-26T09:52:02;2.60;;;1.80;;
58992;SDS011;44782;0.000;0.000;2023-02-26T09:54:27;1.60;;;1.50;;
58992;SDS011;44782;0.000;0.000;2023-02-26T09:56:50;2.07;;;1.90;;
58992;SDS011;44782;0.000;0.000;2023-02-26T09:59:09;1.87;;;1.70;;
58992;SDS011;44782;0.000;0.000;2023-02-26T10:01:30;1.70;;;1.60;;
58992;SDS011;44782;0.000;0.000;2023-02-26T10:06:26;1.50;;;1.40;;
58992;SDS011;44782;0.000;0.000;2023-02-26T10:11:55;2.10;;;1.60;;
58992;SDS011;44782;0.000;0.000;2023-02-26T10:17:16;2.87;;;1.60;;
58992;SDS011;44782;0.000;0.000;2023-02-26T10:19:35;1.87;;;1.50;;
58992;SDS011;44782;0.000;0.000;2023-02-26T10:22:00;1.90;;;1.60;;
58992;SDS011;44782;0.000;0.000;2023-02-26T10:24:26;2.93;;;1.57;;
58992;SDS011;44782;0.000;0.000;2023-02-26T10:26:53;3.13;;;1.67;;
58992;SDS011;44782;0.000;0.000;2023-02-26T10:34:39;2.00;;;1.37;;
58992;SDS011;44782;0.000;0.000;2023-02-26T10:40:12;2.23;;;1.50;;
58992;SDS011;44782;0.000;0.000;2023-02-26T10:42:38;3.57;;;1.50;;
58992;SDS011;44782;0.000;0.000;2023-02-26T10:45:24;3.33;;;1.77;;
58992;SDS011;44782;0.000;0.000;2023-02-26T10:50:29;1.80;;;1.43;;
58992;SDS011;44782;0.000;0.000;2023-02-26T10:52:45;3.60;;;1.60;;
58992;SDS011;44782;0.000;0.000;2023-02-26T10:55:18;1.73;;;1.40;;
58992;SDS011;44782;0.000;0.000;2023-02-26T10:57:37;2.87;;;1.40;;
58992;SDS011;44782;0.000;0.000;2023-02-26T10:59:56;3.63;;;1.43;;
58992;SDS011;44782;0.000;0.000;2023-02-26T11:02:36;2.73;;;1.60;;
58992;SDS011;44782;0.000;0.000;2023-02-26T11:04:53;2.83;;;1.50;;
58992;SDS011;44782;0.000;0.000;2023-02-26T11:07:09;2.20;;;1.53;;
58992;SDS011;44782;0.000;0.000;2023-02-26T11:09:38;1.90;;;1.50;;
58992;SDS011;44782;0.000;0.000;2023-02-26T11:12:03;2.73;;;1.70;;
58992;SDS011;44782;0.000;0.000;2023-02-26T11:14:26;2.73;;;1.63;;
58992;SDS011;44782;0.000;0.000;2023-02-26T11:16:51;4.53;;;1.70;;
58992;SDS011;44782;0.000;0.000;2023-02-26T11:19:10;3.80;;;1.60;;
58992;SDS011;44782;0.000;0.000;2023-02-26T11:21:29;3.10;;;1.60;;
58992;SDS011;44782;0.000;0.000;2023-02-26T11:23:55;3.80;;;1.43;;
58992;SDS011;44782;0.000;0.000;2023-02-26T11:26:15;1.90;;;1.50;;
58992;SDS011;44782;0.000;0.000;2023-02-26T11:28:49;2.70;;;1.50;;
58992;SDS011;44782;0.000;0.000;2023-02-26T11:31:08;2.13;;;1.30;;
58992;SDS011;44782;0.000;0.000;2023-02-26T11:33:27;4.17;;;1.67;;
58992;SDS011;44782;0.000;0.000;2023-02-26T11:35:49;2.30;;;1.57;;
58992;SDS011;44782;0.000;0.000;2023-02-26T11:38:07;2.03;;;1.63;;
58992;SDS011;44782;0.000;0.000;2023-02-26T11:40:35;6.77;;;2.17;;
58992;SDS011;44782;0.000;0.000;2023-02-26T11:42:54;2.30;;;1.73;;
58992;SDS011;44782;0.000;0.000;2023-02-26T11:45:13;5.23;;;1.90;;
58992;SDS011;44782;0.000;0.000;2023-02-26T11:47:32;3.67;;;1.70;;
58992;SDS011;44782;0.000;0.000;2023-02-26T11:49:50;6.60;;;1.90;;
58992;SDS011;44782;0.000;0.000;2023-02-26T11:54:30;7.47;;;2.10;;
58992;SDS011;44782;0.000;0.000;2023-02-26T11:56:49;11.97;;;2.00;;
58992;SDS011;44782;0.000;0.000;2023-02-26T11:59:06;13.70;;;2.10;;
58992;SDS011;44782;0.000;0.000;2023-02-26T12:01:32;10.83;;;2.27;;
58992;SDS011;44782;0.000;0.000;2023-02-26T12:03:49;7.50;;;2.27;;
58992;SDS011;44782;0.000;0.000;2023-02-26T12:06:13;10.10;;;2.10;;
58992;SDS011;44782;0.000;0.000;2023-02-26T12:08:33;14.90;;;2.50;;
58992;SDS011;44782;0.000;0.000;2023-02-26T12:10:57;9.13;;;2.10;;
58992;SDS011;44782;0.000;0.000;2023-02-26T12:16:16;4.97;;;2.10;;
58992;SDS011;44782;0.000;0.000;2023-02-26T12:26:15;5.40;;;1.67;;
58992;SDS011;44782;0.000;0.000;2023-02-26T12:38:25;5.80;;;1.93;;
58992;SDS011;44782;0.000;0.000;2023-02-26T12:41:07;4.73;;;1.97;;
58992;SDS011;44782;0.000;0.000;2023-02-26T12:46:15;6.13;;;2.60;;
58992;SDS011;44782;0.000;0.000;2023-02-26T12:49:43;5.50;;;2.43;;
58992;SDS011;44782;0.000;0.000;2023-02-26T13:00:02;4.83;;;1.80;;
58992;SDS011;44782;0.000;0.000;2023-02-26T13:21:03;4.77;;;1.57;;
58992;SDS011;44782;0.000;0.000;2023-02-26T13:23:41;4.00;;;1.47;;
58992;SDS011;44782;0.000;0.000;2023-02-26T13:26:14;6.20;;;1.73;;
58992;SDS011;44782;0.000;0.000;2023-02-26T13:28:39;2.27;;;1.40;;
58992;SDS011;44782;0.000;0.000;2023-02-26T13:31:10;4.53;;;1.60;;
58992;SDS011;44782;0.000;0.000;2023-02-26T13:33:40;2.43;;;1.47;;
58992;SDS011;44782;0.000;0.000;2023-02-26T13:35:57;3.90;;;1.50;;
58992;SDS011;44782;0.000;0.000;2023-02-26T13:40:41;3.47;;;1.60;;
58992;SDS011;44782;0.000;0.000;2023-02-26T13:48:47;4.27;;;1.30;;
58992;SDS011;44782;0.000;0.000;2023-02-26T13:51:25;3.33;;;1.40;;
58992;SDS011;44782;0.000;0.000;2023-02-26T13:53:47;3.43;;;1.33;;
58992;SDS011;44782;0.000;0.000;2023-02-26T13:58:50;2.43;;;1.20;;
58992;SDS011;44782;0.000;0.000;2023-02-26T14:03:30;2.13;;;1.27;;
58992;SDS011;44782;0.000;0.000;2023-02-26T14:05:53;3.83;;;1.20;;
58992;SDS011;44782;0.000;0.000;2023-02-26T14:08:23;2.07;;;1.10;;
58992;SDS011;44782;0.000;0.000;2023-02-26T14:10:45;3.73;;;1.47;;
58992;SDS011;44782;0.000;0.000;2023-02-26T14:13:20;2.10;;;1.13;;
58992;SDS011;44782;0.000;0.000;2023-02-26T14:16:12;2.93;;;1.40;;
58992;SDS011;44782;0.000;0.000;2023-02-26T14:18:36;2.03;;;1.20;;
58992;SDS011;44782;0.000;0.000;2023-02-26T14:23:49;2.20;;;1.20;;
58992;SDS011;44782;0.000;0.000;2023-02-26T14:26:31;2.23;;;1.30;;
58992;SDS011;44782;0.000;0.000;2023-02-26T14:31:21;1.30;;;1.10;;
58992;SDS011;44782;0.000;0.000;2023-02-26T14:33:44;1.40;;;1.17;;
58992;SDS011;44782;0.000;0.000;2023-02-26T14:36:16;2.83;;;1.30;;
58992;SDS011;44782;0.000;0.000;2023-02-26T14:38:42;1.60;;;1.10;;
58992;SDS011;44782;0.000;0.000;2023-02-26T14:41:04;2.37;;;1.37;;
58992;SDS011;44782;0.000;0.000;2023-02-26T14:43:36;1.63;;;1.30;;
58992;SDS011;44782;0.000;0.000;2023-02-26T14:45:54;2.50;;;1.07;;
58992;SDS011;44782;0.000;0.000;2023-02-26T14:48:13;1.30;;;1.20;;
58992;SDS011;44782;0.000;0.000;2023-02-26T14:50:39;2.20;;;1.20;;
58992;SDS011;44782;0.000;0.000;2023-02-26T14:58:51;1.40;;;1.20;;
58992;SDS011;44782;0.000;0.000;2023-02-26T15:04:17;1.73;;;1.30;;
58992;SDS011;44782;0.000;0.000;2023-02-26T15:06:54;1.53;;;1.20;;
58992;SDS011;44782;0.000;0.000;2023-02-26T15:12:17;1.57;;;1.10;;
58992;SDS011;44782;0.000;0.000;2023-02-26T15:22:27;1.47;;;1.00;;
58992;SDS011;44782;0.000;0.000;2023-02-26T15:24:47;1.40;;;1.30;;
58992;SDS011;44782;0.000;0.000;2023-02-26T15:27:03;2.10;;;1.30;;
58992;SDS011;44782;0.000;0.000;2023-02-26T15:29:22;2.40;;;1.30;;
58992;SDS011;44782;0.000;0.000;2023-02-26T15:31:59;1.30;;;1.00;;
58992;SDS011;44782;0.000;0.000;2023-02-26T15:34:35;2.13;;;1.10;;
58992;SDS011;44782;0.000;0.000;2023-02-26T15:36:51;1.27;;;1.10;;
58992;SDS011;44782;0.000;0.000;2023-02-26T15:39:08;1.97;;;1.10;;
58992;SDS011;44782;0.000;0.000;2023-02-26T15:41:25;1.37;;;1.07;;
58992;SDS011;44782;0.000;0.000;2023-02-26T15:43:53;2.47;;;1.10;;
58992;SDS011;44782;0.000;0.000;2023-02-26T15:46:11;0.97;;;0.97;;
58992;SDS011;44782;0.000;0.000;2023-02-26T15:48:33;2.17;;;0.97;;
58992;SDS011;44782;0.000;0.000;2023-02-26T15:50:52;2.67;;;1.30;;
58992;SDS011;44782;0.000;0.000;2023-02-26T15:53:12;1.43;;;1.13;;
58992;SDS011;44782;0.000;0.000;2023-02-26T15:55:41;2.30;;;1.10;;
58992;SDS011;44782;0.000;0.000;2023-02-26T15:58:02;3.53;;;1.10;;
58992;SDS011;44782;0.000;0.000;2023-02-26T16:00:20;2.77;;;0.90;;
58992;SDS011;44782;0.000;0.000;2023-02-26T16:02:39;2.57;;;1.17;;
58992;SDS011;44782;0.000;0.000;2023-02-26T16:04:56;1.40;;;1.10;;
58992;SDS011;44782;0.000;0.000;2023-02-26T16:07:12;2.53;;;1.20;;
58992;SDS011;44782;0.000;0.000;2023-02-26T16:09:29;1.93;;;1.10;;
58992;SDS011;44782;0.000;0.000;2023-02-26T16:11:51;2.17;;;1.47;;
58992;SDS011;44782;0.000;0.000;2023-02-26T16:14:28;1.80;;;1.07;;
58992;SDS011;44782;0.000;0.000;2023-02-26T16:16:53;2.27;;;1.10;;
58992;SDS011;44782;0.000;0.000;2023-02-26T16:19:12;1.90;;;1.10;;
58992;SDS011;44782;0.000;0.000;2023-02-26T16:21:35;1.40;;;1.20;;
58992;SDS011;44782;0.000;0.000;2023-02-26T16:23:54;1.93;;;1.07;;
58992;SDS011;44782;0.000;0.000;2023-02-26T16:26:31;1.00;;;0.90;;
58992;SDS011;44782;0.000;0.000;2023-02-26T16:28:51;1.43;;;0.90;;
58992;SDS011;44782;0.000;0.000;2023-02-26T16:31:17;1.40;;;1.00;;
58992;SDS011;44782;0.000;0.000;2023-02-26T16:33:35;1.20;;;1.10;;
58992;SDS011;44782;0.000;0.000;2023-02-26T16:35:53;1.20;;;1.10;;
58992;SDS011;44782;0.000;0.000;2023-02-26T16:38:18;1.03;;;1.00;;
58992;SDS011;44782;0.000;0.000;2023-02-26T16:40:36;1.70;;;1.00;;
58992;SDS011;44782;0.000;0.000;2023-02-26T16:42:59;1.93;;;1.30;;
58992;SDS011;44782;0.000;0.000;2023-02-26T16:47:50;1.13;;;0.90;;
58992;SDS011;44782;0.000;0.000;2023-02-26T16:50:13;1.30;;;1.07;;
58992;SDS011;44782;0.000;0.000;2023-02-26T16:52:31;1.10;;;0.93;;
58992;SDS011;44782;0.000;0.000;2023-02-26T16:54:52;1.60;;;0.80;;
58992;SDS011;44782;0.000;0.000;2023-02-26T16:57:16;1.30;;;1.10;;
58992;SDS011;44782;0.000;0.000;2023-02-26T16:59:35;0.97;;;0.90;;
58992;SDS011;44782;0.000;0.000;2023-02-26T17:02:26;1.33;;;1.10;;
58992;SDS011;44782;0.000;0.000;2023-02-26T17:04:36;1.10;;;0.90;;
58992;SDS011;44782;0.000;0.000;2023-02-26T17:06:53;1.00;;;0.90;;
58992;SDS011;44782;0.000;0.000;2023-02-26T17:09:23;1.00;;;1.00;;
58992;SDS011;44782;0.000;0.000;2023-02-26T17:11:39;1.20;;;1.10;;
58992;SDS011;44782;0.000;0.000;2023-02-26T17:16:43;1.10;;;1.00;;
58992;SDS011;44782;0.000;0.000;2023-02-26T17:19:00;1.43;;;1.20;;